createdAt,value
2022-12-25T00:02:02.281Z,1.00
2022-12-25T00:04:28.925Z,0.80
2022-12-25T00:06:56.215Z,0.98
2022-12-25T00:09:22.926Z,1.10
2022-12-25T00:11:49.644Z,1.08
2022-12-25T00:14:16.575Z,1.20
2022-12-25T00:16:43.344Z,1.08
2022-12-25T00:19:10.024Z,0.95
2022-12-25T00:21:36.643Z,0.93
2022-12-25T00:24:03.599Z,1.20
2022-12-25T00:26:30.296Z,0.90
2022-12-25T00:28:58.119Z,0.82
2022-12-25T00:31:26.094Z,1.20
2022-12-25T00:33:53.250Z,1.00
2022-12-25T00:36:21.378Z,1.05
2022-12-25T00:38:48.419Z,1.08
2022-12-25T00:41:17.195Z,0.88
2022-12-25T00:43:44.223Z,1.08
2022-12-25T00:46:12.739Z,1.08
2022-12-25T00:48:41.365Z,1.40
2022-12-25T00:51:11.169Z,1.02
2022-12-25T00:53:37.926Z,1.40
2022-12-25T00:56:06.427Z,1.20
2022-12-25T00:58:34.689Z,1.33
2022-12-25T01:01:02.845Z,1.20
2022-12-25T01:03:30.236Z,1.00
2022-12-25T01:06:02.756Z,1.17
2022-12-25T01:08:30.935Z,1.58
2022-12-25T01:11:03.218Z,1.00
2022-12-25T01:13:30.484Z,1.10
2022-12-25T01:15:57.350Z,1.17
2022-12-25T01:18:25.281Z,1.30
2022-12-25T01:20:52.317Z,1.00
2022-12-25T01:23:19.026Z,1.10
2022-12-25T01:25:45.697Z,1.30
2022-12-25T01:28:12.509Z,1.30
2022-12-25T01:30:39.463Z,1.25
2022-12-25T01:33:06.163Z,1.05
2022-12-25T01:35:32.816Z,0.98
2022-12-25T01:37:59.477Z,1.10
2022-12-25T01:40:26.140Z,0.90
2022-12-25T01:42:52.802Z,1.00
2022-12-25T01:45:39.010Z,0.90
2022-12-25T01:48:10.525Z,0.90
2022-12-25T01:50:37.755Z,1.02
2022-12-25T01:53:04.710Z,1.10
2022-12-25T01:55:32.496Z,1.02
2022-12-25T01:57:59.151Z,0.93
2022-12-25T02:00:25.873Z,1.00
2022-12-25T02:02:52.811Z,1.15
2022-12-25T02:05:27.713Z,1.20
2022-12-25T02:07:54.988Z,1.05
2022-12-25T02:10:21.884Z,1.20
2022-12-25T02:12:49.086Z,1.05
2022-12-25T02:15:19.147Z,1.17
2022-12-25T02:17:45.876Z,1.10
2022-12-25T02:20:47.192Z,0.90
2022-12-25T02:23:42.186Z,1.17
2022-12-25T02:26:11.832Z,0.90
2022-12-25T02:29:17.893Z,1.08
2022-12-25T02:31:55.636Z,0.80
2022-12-25T02:34:40.126Z,1.10
2022-12-25T02:37:07.956Z,1.20
2022-12-25T02:39:58.468Z,1.10
2022-12-25T02:42:53.334Z,1.10
2022-12-25T02:45:44.832Z,1.00
2022-12-25T02:48:31.303Z,0.88
2022-12-25T02:51:18.840Z,0.90
2022-12-25T02:54:06.022Z,0.90
2022-12-25T02:56:54.107Z,0.93
2022-12-25T02:59:40.011Z,0.80
2022-12-25T03:02:26.039Z,0.77
2022-12-25T03:05:13.216Z,0.80
2022-12-25T03:07:42.303Z,0.80
2022-12-25T03:10:29.482Z,1.05
2022-12-25T03:13:09.922Z,0.80
2022-12-25T03:15:55.295Z,0.68
2022-12-25T03:18:24.541Z,0.52
2022-12-25T03:21:10.797Z,0.70
2022-12-25T03:23:58.065Z,0.73
2022-12-25T03:26:46.715Z,0.68
2022-12-25T03:29:36.432Z,0.55
2022-12-25T03:32:29.435Z,0.77
2022-12-25T03:35:25.614Z,0.70
2022-12-25T03:38:44.222Z,0.50
2022-12-25T03:41:38.697Z,0.60
2022-12-25T03:44:48.772Z,0.70
2022-12-25T03:47:48.811Z,0.50
2022-12-25T03:50:52.752Z,0.60
2022-12-25T03:53:43.119Z,0.70
2022-12-25T03:56:29.051Z,0.70
2022-12-25T03:59:22.918Z,0.77
2022-12-25T04:02:09.633Z,0.63
2022-12-25T04:04:55.170Z,0.63
2022-12-25T04:07:40.492Z,0.73
2022-12-25T04:10:26.356Z,0.82
2022-12-25T04:13:11.748Z,0.52
2022-12-25T04:15:57.398Z,0.60
2022-12-25T04:18:42.976Z,0.70
2022-12-25T04:21:28.431Z,0.68
2022-12-25T04:24:13.720Z,0.60
2022-12-25T04:26:59.648Z,0.70
2022-12-25T04:29:45.297Z,0.50
2022-12-25T04:32:30.640Z,0.70
2022-12-25T04:35:16.130Z,0.70
2022-12-25T04:37:42.848Z,0.60
2022-12-25T04:40:09.921Z,0.88
2022-12-25T04:42:36.690Z,0.80
2022-12-25T04:45:03.612Z,0.70
2022-12-25T04:47:30.379Z,0.63
2022-12-25T04:49:57.071Z,0.65
2022-12-25T04:52:23.812Z,0.60
2022-12-25T04:54:50.489Z,0.52
2022-12-25T04:57:17.179Z,0.70
2022-12-25T04:59:43.887Z,0.70
2022-12-25T05:02:10.828Z,0.70
2022-12-25T05:04:37.569Z,0.90
2022-12-25T05:07:04.251Z,0.80
2022-12-25T05:09:30.980Z,0.77
2022-12-25T05:11:57.640Z,1.10
2022-12-25T05:14:24.379Z,0.75
2022-12-25T05:16:51.088Z,0.93
2022-12-25T05:19:17.765Z,0.73
2022-12-25T05:21:44.538Z,0.90
2022-12-25T05:24:11.221Z,0.80
2022-12-25T05:26:37.925Z,0.85
2022-12-25T05:29:04.663Z,0.90
2022-12-25T05:31:31.398Z,1.00
2022-12-25T05:33:58.193Z,0.80
2022-12-25T05:36:24.853Z,0.80
2022-12-25T05:38:51.729Z,1.00
2022-12-25T05:41:18.617Z,1.00
2022-12-25T05:43:45.289Z,0.70
2022-12-25T05:46:13.275Z,1.00
2022-12-25T05:48:40.005Z,0.95
2022-12-25T05:51:08.379Z,0.95
2022-12-25T05:53:35.813Z,1.10
2022-12-25T05:56:04.328Z,1.00
2022-12-25T05:58:32.832Z,0.68
2022-12-25T06:00:59.724Z,0.90
2022-12-25T06:03:26.598Z,0.88
2022-12-25T06:05:53.836Z,0.90
2022-12-25T06:08:20.862Z,0.90
2022-12-25T06:10:47.755Z,0.93
2022-12-25T06:13:14.456Z,0.77
2022-12-25T06:15:42.028Z,1.10
2022-12-25T06:18:09.021Z,1.00
2022-12-25T06:20:35.962Z,0.85
2022-12-25T06:23:02.656Z,0.90
2022-12-25T06:25:29.399Z,1.05
2022-12-25T06:27:56.100Z,1.00
2022-12-25T06:30:22.817Z,1.10
2022-12-25T06:32:49.499Z,0.90
2022-12-25T06:35:16.440Z,1.10
2022-12-25T06:37:43.108Z,1.00
2022-12-25T06:40:10.143Z,1.10
2022-12-25T06:42:36.898Z,1.40
2022-12-25T06:45:03.903Z,1.10
2022-12-25T06:47:30.703Z,1.48
2022-12-25T06:49:57.390Z,1.30
2022-12-25T06:52:24.117Z,1.10
2022-12-25T06:54:52.161Z,1.10
2022-12-25T06:57:19.193Z,1.20
2022-12-25T06:59:49.892Z,1.27
2022-12-25T07:02:22.216Z,1.07
2022-12-25T07:04:49.115Z,1.38
2022-12-25T07:07:15.789Z,1.33
2022-12-25T07:09:42.705Z,1.00
2022-12-25T07:12:20.829Z,1.30
2022-12-25T07:14:50.355Z,1.10
2022-12-25T07:17:17.568Z,1.10
2022-12-25T07:19:45.285Z,1.40
2022-12-25T07:22:13.063Z,1.08
2022-12-25T07:24:39.806Z,1.40
2022-12-25T07:27:06.679Z,1.38
2022-12-25T07:29:33.327Z,1.30
2022-12-25T07:32:01.094Z,1.20
2022-12-25T07:34:27.795Z,1.33
2022-12-25T07:36:55.241Z,1.10
2022-12-25T07:39:22.125Z,1.27
2022-12-25T07:41:48.895Z,1.20
2022-12-25T07:44:16.078Z,1.38
2022-12-25T07:46:43.144Z,1.55
2022-12-25T07:49:10.960Z,1.45
2022-12-25T07:51:37.734Z,1.27
2022-12-25T07:54:04.564Z,1.73
2022-12-25T07:56:31.273Z,1.30
2022-12-25T07:58:58.087Z,1.40
2022-12-25T08:01:26.747Z,1.60
2022-12-25T08:03:55.770Z,1.70
2022-12-25T08:06:24.657Z,1.70
2022-12-25T08:08:51.351Z,1.70
2022-12-25T08:11:18.193Z,2.03
2022-12-25T08:13:44.914Z,1.60
2022-12-25T08:16:11.640Z,1.83
2022-12-25T08:18:39.411Z,1.58
2022-12-25T08:21:11.142Z,1.73
2022-12-25T08:23:40.245Z,1.80
2022-12-25T08:26:08.533Z,1.67
2022-12-25T08:28:36.188Z,1.90
2022-12-25T08:31:29.133Z,1.40
2022-12-25T08:33:58.006Z,1.70
2022-12-25T08:36:25.188Z,1.83
2022-12-25T08:38:54.597Z,1.65
2022-12-25T08:41:25.931Z,1.55
2022-12-25T08:43:52.812Z,1.60
2022-12-25T08:46:19.865Z,1.63
2022-12-25T08:48:47.757Z,1.50
2022-12-25T08:51:17.369Z,1.75
2022-12-25T08:53:45.022Z,1.85
2022-12-25T08:56:12.370Z,1.58
2022-12-25T08:58:39.179Z,1.50
2022-12-25T09:01:06.705Z,1.77
2022-12-25T09:03:33.999Z,1.80
2022-12-25T09:06:15.011Z,1.80
2022-12-25T09:08:48.233Z,1.60
2022-12-25T09:11:17.050Z,1.83
2022-12-25T09:13:43.784Z,2.58
2022-12-25T09:16:17.202Z,3.03
2022-12-25T09:18:43.889Z,2.75
2022-12-25T09:21:12.730Z,2.55
2022-12-25T09:23:40.111Z,3.45
2022-12-25T09:26:16.478Z,2.72
2022-12-25T09:28:52.082Z,1.92
2022-12-25T09:31:22.021Z,1.90
2022-12-25T09:33:51.496Z,2.05
2022-12-25T09:36:18.661Z,1.83
2022-12-25T09:38:45.755Z,1.92
2022-12-25T09:42:03.169Z,3.08
2022-12-25T09:44:45.094Z,3.08
2022-12-25T09:47:18.399Z,3.55
2022-12-25T09:50:17.379Z,3.58
2022-12-25T09:52:59.430Z,2.85
2022-12-25T09:55:39.212Z,2.83
2022-12-25T09:58:12.533Z,2.58
2022-12-25T10:00:47.952Z,2.80
2022-12-25T10:03:24.093Z,3.40
2022-12-25T10:06:21.943Z,2.85
2022-12-25T10:09:17.701Z,1.55
2022-12-25T10:14:36.427Z,1.48
2022-12-25T10:17:40.187Z,1.67
2022-12-25T10:20:08.714Z,1.52
2022-12-25T10:22:45.672Z,1.60
2022-12-25T10:25:19.473Z,1.50
2022-12-25T10:27:50.977Z,1.60
2022-12-25T10:30:20.535Z,1.70
2022-12-25T10:32:47.637Z,1.40
2022-12-25T10:35:17.375Z,1.30
2022-12-25T10:37:46.035Z,1.35
2022-12-25T10:40:37.619Z,1.60
2022-12-25T10:43:12.613Z,1.40
2022-12-25T10:45:48.079Z,1.40
2022-12-25T10:48:24.396Z,1.60
2022-12-25T10:50:58.088Z,1.35
2022-12-25T10:53:30.155Z,1.42
2022-12-25T10:56:06.385Z,1.80
2022-12-25T10:58:34.999Z,1.80
2022-12-25T11:01:10.258Z,1.63
2022-12-25T11:03:42.113Z,2.20
2022-12-25T11:06:23.274Z,2.10
2022-12-25T11:09:01.524Z,1.95
2022-12-25T11:11:29.361Z,1.70
2022-12-25T11:14:02.603Z,1.50
2022-12-25T11:16:32.249Z,1.30
2022-12-25T11:19:03.951Z,1.23
2022-12-25T11:21:41.070Z,1.30
2022-12-25T11:24:23.552Z,1.20
2022-12-25T11:26:57.729Z,1.35
2022-12-25T11:29:47.042Z,1.25
2022-12-25T11:32:25.732Z,1.30
2022-12-25T11:34:54.226Z,1.20
2022-12-25T11:37:46.109Z,1.08
2022-12-25T11:40:25.945Z,1.10
2022-12-25T11:43:13.833Z,1.48
2022-12-25T11:45:46.976Z,1.25
2022-12-25T11:48:44.805Z,1.50
2022-12-25T11:51:15.873Z,1.15
2022-12-25T11:53:57.720Z,1.00
2022-12-25T11:56:30.351Z,1.08
2022-12-25T11:59:03.385Z,1.02
2022-12-25T12:04:42.881Z,1.30
2022-12-25T12:07:27.680Z,1.27
2022-12-25T12:10:17.572Z,1.25
2022-12-25T12:12:55.069Z,1.65
2022-12-25T12:15:31.945Z,0.95
2022-12-25T12:18:23.808Z,1.50
2022-12-25T12:21:12.004Z,1.20
2022-12-25T12:24:07.344Z,1.30
2022-12-25T12:26:38.216Z,1.67
2022-12-25T12:29:11.051Z,1.63
2022-12-25T12:31:47.864Z,0.88
2022-12-25T12:34:27.445Z,1.10
2022-12-25T12:37:24.668Z,1.00
2022-12-25T12:40:11.011Z,1.45
2022-12-25T12:42:56.177Z,1.95
2022-12-25T12:45:33.785Z,2.30
2022-12-25T12:50:32.772Z,3.08
2022-12-25T12:53:06.149Z,3.40
2022-12-25T12:55:38.882Z,2.45
2022-12-25T12:58:24.757Z,2.47
2022-12-25T13:01:05.409Z,1.27
2022-12-25T13:03:56.471Z,1.30
2022-12-25T13:06:38.011Z,1.10
2022-12-25T13:09:20.046Z,1.00
2022-12-25T13:11:55.086Z,1.00
2022-12-25T13:14:26.470Z,1.33
2022-12-25T13:16:56.924Z,1.30
2022-12-25T13:19:29.555Z,1.00
2022-12-25T13:22:08.125Z,1.10
2022-12-25T13:24:44.419Z,0.95
2022-12-25T13:27:30.514Z,1.30
2022-12-25T13:30:12.199Z,1.20
2022-12-25T13:32:41.521Z,1.20
2022-12-25T13:35:17.156Z,0.90
2022-12-25T13:37:49.064Z,1.10
2022-12-25T13:41:10.894Z,1.10
2022-12-25T13:43:39.367Z,1.10
2022-12-25T13:46:14.196Z,0.80
2022-12-25T13:48:42.529Z,1.00
2022-12-25T13:51:18.721Z,1.02
2022-12-25T13:53:55.113Z,1.10
2022-12-25T13:56:32.083Z,1.17
2022-12-25T13:59:02.943Z,0.90
2022-12-25T14:01:38.152Z,1.00
2022-12-25T14:04:09.169Z,1.10
2022-12-25T14:06:36.737Z,1.30
2022-12-25T14:09:10.536Z,1.10
2022-12-25T14:11:37.861Z,1.05
2022-12-25T14:14:29.802Z,1.25
2022-12-25T14:16:58.456Z,1.52
2022-12-25T14:19:34.894Z,1.13
2022-12-25T14:22:12.681Z,1.27
2022-12-25T14:24:46.334Z,1.10
2022-12-25T14:27:33.940Z,1.08
2022-12-25T14:30:13.348Z,0.93
2022-12-25T14:32:43.961Z,1.02
2022-12-25T14:35:14.786Z,0.90
2022-12-25T14:38:00.541Z,0.90
2022-12-25T14:40:31.402Z,0.90
2022-12-25T14:43:03.299Z,1.13
2022-12-25T14:45:43.419Z,0.90
2022-12-25T14:48:25.229Z,0.80
2022-12-25T14:51:04.131Z,0.90
2022-12-25T14:53:41.236Z,0.93
2022-12-25T14:56:10.197Z,0.93
2022-12-25T14:58:57.083Z,0.98
2022-12-25T15:01:57.522Z,0.88
2022-12-25T15:04:25.349Z,0.98
2022-12-25T15:06:58.028Z,1.10
2022-12-25T15:09:25.454Z,1.00
2022-12-25T15:11:55.381Z,0.80
2022-12-25T15:14:23.543Z,0.80
2022-12-25T15:16:58.098Z,0.90
2022-12-25T15:19:36.542Z,0.60
2022-12-25T15:22:04.419Z,0.80
2022-12-25T15:24:31.151Z,0.75
2022-12-25T15:27:00.357Z,0.82
2022-12-25T15:32:18.459Z,0.80
2022-12-25T15:34:47.216Z,1.10
2022-12-25T15:37:14.655Z,1.10
2022-12-25T15:39:41.685Z,0.95
2022-12-25T15:42:17.457Z,1.00
2022-12-25T15:44:45.262Z,1.00
2022-12-25T15:47:13.880Z,0.85
2022-12-25T15:49:40.928Z,1.08
2022-12-25T15:52:10.287Z,0.98
2022-12-25T15:54:37.243Z,0.80
2022-12-25T15:57:06.547Z,0.98
2022-12-25T15:59:33.525Z,1.27
2022-12-25T16:02:01.626Z,1.10
2022-12-25T16:04:31.443Z,1.00
2022-12-25T16:06:59.021Z,1.20
2022-12-25T16:09:27.471Z,1.40
2022-12-25T16:11:54.364Z,1.30
2022-12-25T16:14:21.879Z,1.15
2022-12-25T16:16:48.632Z,1.83
2022-12-25T16:19:15.323Z,1.90
2022-12-25T16:21:45.132Z,1.30
2022-12-25T16:24:12.511Z,1.30
2022-12-25T16:26:39.648Z,1.80
2022-12-25T16:29:08.019Z,2.30
2022-12-25T16:31:35.846Z,3.90
2022-12-25T16:34:02.914Z,4.13
2022-12-25T16:36:29.638Z,2.58
2022-12-25T16:38:56.402Z,2.40
2022-12-25T16:41:23.244Z,1.77
2022-12-25T16:43:49.989Z,1.67
2022-12-25T16:46:20.572Z,1.40
2022-12-25T16:48:47.530Z,1.23
2022-12-25T16:51:16.925Z,1.30
2022-12-25T16:53:44.215Z,1.30
2022-12-25T16:56:16.738Z,1.10
2022-12-25T16:58:47.551Z,1.50
2022-12-25T17:01:17.407Z,1.40
2022-12-25T17:03:44.600Z,1.70
2022-12-25T17:06:20.528Z,1.60
2022-12-25T17:08:47.550Z,1.35
2022-12-25T17:11:14.776Z,1.60
2022-12-25T17:13:45.467Z,3.33
2022-12-25T17:16:17.255Z,2.67
2022-12-25T17:18:44.333Z,2.70
2022-12-25T17:21:11.442Z,1.80
2022-12-25T17:23:38.515Z,2.40
2022-12-25T17:26:05.452Z,2.00
2022-12-25T17:28:34.341Z,1.75
2022-12-25T17:31:06.589Z,2.70
2022-12-25T17:33:36.476Z,4.57
2022-12-25T17:36:04.419Z,4.15
2022-12-25T17:38:32.020Z,7.07
2022-12-25T17:40:59.871Z,3.05
2022-12-25T17:43:26.584Z,1.83
2022-12-25T17:45:53.293Z,2.10
2022-12-25T17:48:20.281Z,2.10
2022-12-25T17:50:47.304Z,2.53
2022-12-25T17:53:14.111Z,2.20
2022-12-25T17:55:41.303Z,2.65
2022-12-25T17:58:09.083Z,2.30
2022-12-25T18:00:36.553Z,2.45
2022-12-25T18:03:10.765Z,2.00
2022-12-25T18:05:38.136Z,1.50
2022-12-25T18:08:05.354Z,1.70
2022-12-25T18:10:39.485Z,1.85
2022-12-25T18:13:06.621Z,1.90
2022-12-25T18:15:39.798Z,1.98
2022-12-25T18:18:07.698Z,2.10
2022-12-25T18:20:39.850Z,3.03
2022-12-25T18:23:07.708Z,2.30
2022-12-25T18:25:34.553Z,2.50
2022-12-25T18:28:02.737Z,1.60
2022-12-25T18:30:29.796Z,3.20
2022-12-25T18:32:56.624Z,2.50
2022-12-25T18:35:28.930Z,2.13
2022-12-25T18:37:55.995Z,8.98
2022-12-25T18:40:23.090Z,7.20
2022-12-25T18:42:52.320Z,4.90
2022-12-25T18:45:21.515Z,3.25
2022-12-25T18:47:48.331Z,4.78
2022-12-25T18:50:15.232Z,2.63
2022-12-25T18:52:49.173Z,3.15
2022-12-25T18:55:18.023Z,2.83
2022-12-25T18:57:44.725Z,2.30
2022-12-25T19:00:11.662Z,2.30
2022-12-25T19:02:39.369Z,2.58
2022-12-25T19:05:07.018Z,2.33
2022-12-25T19:07:34.384Z,2.75
2022-12-25T19:10:03.848Z,3.22
2022-12-25T19:12:31.585Z,2.15
2022-12-25T19:14:59.151Z,2.90
2022-12-25T19:17:31.504Z,2.05
2022-12-25T19:19:59.066Z,1.77
2022-12-25T19:22:25.901Z,1.80
2022-12-25T19:24:52.584Z,2.20
2022-12-25T19:27:19.241Z,2.15
2022-12-25T19:29:45.959Z,2.65
2022-12-25T19:32:12.645Z,4.43
2022-12-25T19:34:39.310Z,3.60
2022-12-25T19:37:06.332Z,3.10
2022-12-25T19:39:33.082Z,1.90
2022-12-25T19:41:59.772Z,2.00
2022-12-25T19:44:26.488Z,3.75
2022-12-25T19:46:53.457Z,2.95
2022-12-25T19:49:24.869Z,2.13
2022-12-25T19:51:54.743Z,1.60
2022-12-25T19:54:21.510Z,2.13
2022-12-25T19:56:49.244Z,2.40
2022-12-25T19:59:15.948Z,2.53
2022-12-25T20:01:42.889Z,3.05
2022-12-25T20:04:10.362Z,1.77
2022-12-25T20:06:40.269Z,1.70
2022-12-25T20:09:20.625Z,1.50
2022-12-25T20:11:48.310Z,1.60
2022-12-25T20:14:16.433Z,1.35
2022-12-25T20:16:43.442Z,1.58
2022-12-25T20:19:12.165Z,1.80
2022-12-25T20:21:39.337Z,1.23
2022-12-25T20:24:10.017Z,1.65
2022-12-25T20:26:37.872Z,1.60
2022-12-25T20:29:04.899Z,1.25
2022-12-25T20:31:33.904Z,1.60
2022-12-25T20:34:05.324Z,1.50
2022-12-25T20:36:36.751Z,1.50
2022-12-25T20:39:05.992Z,1.27
2022-12-25T20:41:32.678Z,1.50
2022-12-25T20:43:59.907Z,1.50
2022-12-25T20:46:27.040Z,1.33
2022-12-25T20:48:54.271Z,1.50
2022-12-25T20:51:22.847Z,1.45
2022-12-25T20:53:49.824Z,1.40
2022-12-25T20:56:18.843Z,1.45
2022-12-25T20:58:45.684Z,1.40
2022-12-25T21:01:17.420Z,1.40
2022-12-25T21:03:45.068Z,1.55
2022-12-25T21:06:12.403Z,1.38
2022-12-25T21:08:40.646Z,1.40
2022-12-25T21:11:08.151Z,1.33
2022-12-25T21:13:37.852Z,1.45
2022-12-25T21:16:06.472Z,1.75
2022-12-25T21:18:33.179Z,1.40
2022-12-25T21:21:04.699Z,1.20
2022-12-25T21:23:31.637Z,1.52
2022-12-25T21:25:58.391Z,1.70
2022-12-25T21:28:30.116Z,1.50
2022-12-25T21:31:05.001Z,1.40
2022-12-25T21:33:50.179Z,1.83
2022-12-25T21:38:45.459Z,1.40
2022-12-25T21:41:13.534Z,1.35
2022-12-25T21:43:41.054Z,1.48
2022-12-25T21:46:10.768Z,1.40
2022-12-25T21:48:38.142Z,1.30
2022-12-25T21:51:29.911Z,1.52
2022-12-25T21:53:57.748Z,1.52
2022-12-25T21:56:25.579Z,1.50
2022-12-25T21:58:52.251Z,1.85
2022-12-25T22:01:19.103Z,2.22
2022-12-25T22:03:46.366Z,1.73
2022-12-25T22:06:31.892Z,1.90
2022-12-25T22:08:58.625Z,1.85
2022-12-25T22:11:44.476Z,1.33
2022-12-25T22:14:52.072Z,1.30
2022-12-25T22:17:49.968Z,1.70
2022-12-25T22:20:26.819Z,1.60
2022-12-25T22:22:54.219Z,1.60
2022-12-25T22:25:21.527Z,1.50
2022-12-25T22:27:49.067Z,1.75
2022-12-25T22:30:18.384Z,1.60
2022-12-25T22:32:46.364Z,1.50
2022-12-25T22:35:14.236Z,1.75
2022-12-25T22:37:42.045Z,1.50
2022-12-25T22:40:11.176Z,1.63
2022-12-25T22:42:37.919Z,1.60
2022-12-25T22:45:05.391Z,1.55
2022-12-25T22:47:32.279Z,1.77
2022-12-25T22:49:58.997Z,1.30
2022-12-25T22:52:25.697Z,1.70
2022-12-25T22:54:52.394Z,1.20
2022-12-25T22:57:19.542Z,1.50
2022-12-25T22:59:46.230Z,1.40
2022-12-25T23:02:13.137Z,1.33
2022-12-25T23:04:39.923Z,1.67
2022-12-25T23:07:07.224Z,1.17
2022-12-25T23:09:34.429Z,1.20
2022-12-25T23:12:01.131Z,1.20
2022-12-25T23:14:39.905Z,1.75
2022-12-25T23:17:29.748Z,1.80
2022-12-25T23:20:16.591Z,1.40
2022-12-25T23:23:02.002Z,1.10
2022-12-25T23:25:47.427Z,1.50
2022-12-25T23:28:14.272Z,1.65
2022-12-25T23:30:41.021Z,1.30
2022-12-25T23:33:07.692Z,1.60
2022-12-25T23:35:34.425Z,1.38
2022-12-25T23:38:01.158Z,1.35
2022-12-25T23:40:27.923Z,1.40
2022-12-25T23:42:54.625Z,1.40
2022-12-25T23:45:21.333Z,1.48
2022-12-25T23:47:48.378Z,1.50
2022-12-25T23:50:15.230Z,1.60
2022-12-25T23:52:41.971Z,1.40
2022-12-25T23:55:09.077Z,1.50
2022-12-25T23:57:35.760Z,1.75
